createdAt,value
2023-05-22T00:00:29.037Z,15.25
2023-05-22T00:01:02.181Z,13.85
2023-05-22T00:01:34.081Z,13.57
2023-05-22T00:02:06.034Z,13.95
2023-05-22T00:02:42.850Z,13.90
2023-05-22T00:03:15.169Z,13.68
2023-05-22T00:03:48.476Z,13.05
2023-05-22T00:04:21.687Z,14.85
2023-05-22T00:04:54.177Z,12.65
2023-05-22T00:05:26.038Z,14.70
2023-05-22T00:06:00.286Z,13.48
2023-05-22T00:06:33.945Z,14.13
2023-05-22T00:07:07.384Z,13.55
2023-05-22T00:07:39.726Z,13.30
2023-05-22T00:08:11.822Z,12.60
2023-05-22T00:08:44.761Z,13.48
2023-05-22T00:09:16.648Z,14.02
2023-05-22T00:09:48.512Z,13.95
2023-05-22T00:10:21.390Z,13.15
2023-05-22T00:10:53.328Z,12.93
2023-05-22T00:11:25.855Z,14.13
2023-05-22T00:11:58.738Z,13.68
2023-05-22T00:12:30.640Z,13.85
2023-05-22T00:13:02.453Z,14.93
2023-05-22T00:13:35.243Z,13.95
2023-05-22T00:14:07.236Z,14.10
2023-05-22T00:14:39.084Z,13.50
2023-05-22T00:15:14.046Z,13.90
2023-05-22T00:15:45.947Z,13.15
2023-05-22T00:16:17.800Z,13.05
2023-05-22T00:16:50.175Z,13.45
2023-05-22T00:17:23.767Z,12.57
2023-05-22T00:17:55.739Z,14.52
2023-05-22T00:18:27.802Z,15.02
2023-05-22T00:19:01.842Z,13.75
2023-05-22T00:19:33.829Z,13.55
2023-05-22T00:20:10.603Z,14.10
2023-05-22T00:20:46.335Z,13.38
2023-05-22T00:21:18.459Z,12.57
2023-05-22T00:21:51.784Z,13.18
2023-05-22T00:22:23.634Z,13.00
2023-05-22T00:22:56.816Z,14.32
2023-05-22T00:23:29.919Z,14.30
2023-05-22T00:24:01.817Z,13.85
2023-05-22T00:24:33.644Z,14.07
2023-05-22T00:25:07.699Z,13.18
2023-05-22T00:25:40.199Z,14.00
2023-05-22T00:26:15.612Z,15.18
2023-05-22T00:26:48.392Z,13.93
2023-05-22T00:27:20.200Z,14.00
2023-05-22T00:27:52.020Z,14.32
2023-05-22T00:28:24.802Z,13.05
2023-05-22T00:28:56.647Z,13.93
2023-05-22T00:29:28.460Z,13.55
2023-05-22T00:30:01.732Z,14.68
2023-05-22T00:30:35.215Z,14.27
2023-05-22T00:31:07.071Z,15.43
2023-05-22T00:31:39.843Z,13.73
2023-05-22T00:32:11.696Z,14.25
2023-05-22T00:32:43.570Z,14.55
2023-05-22T00:33:16.459Z,13.95
2023-05-22T00:33:48.493Z,13.40
2023-05-22T00:34:20.393Z,14.50
2023-05-22T00:34:53.419Z,13.43
2023-05-22T00:35:25.876Z,13.90
2023-05-22T00:35:57.738Z,14.73
2023-05-22T00:36:30.730Z,12.82
2023-05-22T00:37:02.545Z,14.20
2023-05-22T00:37:34.434Z,13.90
2023-05-22T00:38:07.282Z,13.77
2023-05-22T00:38:39.134Z,15.02
2023-05-22T00:39:11.252Z,15.20
2023-05-22T00:39:43.093Z,14.45
2023-05-22T00:40:16.558Z,14.05
2023-05-22T00:40:48.388Z,14.25
2023-05-22T00:41:21.606Z,13.90
2023-05-22T00:41:53.562Z,14.38
2023-05-22T00:42:26.409Z,14.32
2023-05-22T00:42:58.241Z,13.40
2023-05-22T00:43:30.369Z,13.85
2023-05-22T00:44:03.564Z,13.25
2023-05-22T00:44:35.567Z,14.27
2023-05-22T00:45:09.745Z,13.20
2023-05-22T00:45:43.886Z,13.48
2023-05-22T00:46:15.730Z,14.20
2023-05-22T00:46:47.610Z,12.90
2023-05-22T00:47:21.138Z,14.80
2023-05-22T00:47:53.795Z,12.82
2023-05-22T00:48:26.015Z,13.80
2023-05-22T00:48:58.943Z,13.90
2023-05-22T00:49:30.840Z,15.00
2023-05-22T00:50:03.207Z,13.93
2023-05-22T00:50:35.081Z,14.57
2023-05-22T00:51:08.223Z,14.90
2023-05-22T00:51:40.226Z,14.30
2023-05-22T00:52:14.428Z,13.80
2023-05-22T00:52:47.997Z,13.57
2023-05-22T00:53:21.440Z,15.05
2023-05-22T00:53:54.535Z,14.77
2023-05-22T00:54:27.416Z,12.73
2023-05-22T00:54:59.995Z,14.00
2023-05-22T00:55:31.850Z,14.80
2023-05-22T00:56:06.976Z,14.30
2023-05-22T00:56:41.076Z,15.50
2023-05-22T00:57:13.245Z,14.25
2023-05-22T00:57:46.055Z,13.20
2023-05-22T00:58:19.696Z,14.93
2023-05-22T00:58:51.552Z,15.52
2023-05-22T00:59:24.020Z,13.73
2023-05-22T00:59:57.406Z,14.38
2023-05-22T01:00:29.876Z,14.77
2023-05-22T01:01:03.386Z,14.68
2023-05-22T01:01:38.691Z,14.10
2023-05-22T01:02:10.626Z,14.63
2023-05-22T01:02:43.107Z,14.32
2023-05-22T01:03:17.003Z,15.30
2023-05-22T01:03:50.667Z,14.10
2023-05-22T01:04:22.876Z,13.55
2023-05-22T01:04:58.032Z,14.57
2023-05-22T01:05:30.095Z,14.20
2023-05-22T01:06:02.060Z,14.55
2023-05-22T01:06:34.244Z,14.40
2023-05-22T01:07:07.347Z,15.13
2023-05-22T01:07:39.215Z,14.20
2023-05-22T01:08:11.889Z,13.18
2023-05-22T01:08:44.975Z,13.35
2023-05-22T01:09:16.899Z,14.02
2023-05-22T01:09:48.780Z,15.38
2023-05-22T01:10:21.729Z,14.48
2023-05-22T01:11:04.611Z,14.68
2023-05-22T01:11:46.319Z,13.55
2023-05-22T01:12:32.722Z,13.52
2023-05-22T01:13:13.543Z,14.80
2023-05-22T01:13:55.963Z,15.75
2023-05-22T01:14:34.955Z,14.45
2023-05-22T01:15:17.439Z,12.35
2023-05-22T01:15:58.207Z,14.68
2023-05-22T01:16:41.704Z,14.02
2023-05-22T01:17:23.371Z,14.02
2023-05-22T01:18:11.083Z,14.80
2023-05-22T01:18:48.286Z,13.38
2023-05-22T01:19:50.462Z,14.70
2023-05-22T01:20:30.488Z,15.55
2023-05-22T01:21:10.135Z,14.23
2023-05-22T01:21:47.765Z,14.13
2023-05-22T01:22:33.928Z,14.90
2023-05-22T01:23:55.234Z,15.32
2023-05-22T01:24:51.859Z,13.45
2023-05-22T01:25:41.222Z,13.55
2023-05-22T01:26:23.341Z,13.75
2023-05-22T01:27:25.664Z,14.05
2023-05-22T01:28:16.418Z,13.88
2023-05-22T01:29:15.614Z,14.70
2023-05-22T01:29:56.464Z,14.30
2023-05-22T01:30:48.506Z,14.52
2023-05-22T01:31:25.928Z,13.20
2023-05-22T01:32:00.520Z,15.07
2023-05-22T01:32:35.749Z,14.43
2023-05-22T01:33:09.545Z,14.13
2023-05-22T01:33:46.282Z,14.38
2023-05-22T01:34:20.877Z,14.18
2023-05-22T01:34:56.068Z,15.73
2023-05-22T01:35:28.682Z,15.32
2023-05-22T01:36:03.858Z,15.57
2023-05-22T01:36:37.267Z,15.00
2023-05-22T01:37:10.916Z,13.77
2023-05-22T01:37:44.678Z,13.68
2023-05-22T01:38:17.290Z,13.38
2023-05-22T01:38:49.750Z,14.98
2023-05-22T01:39:23.675Z,14.88
2023-05-22T01:39:55.925Z,14.45
2023-05-22T01:40:29.091Z,13.50
2023-05-22T01:41:01.555Z,16.20
2023-05-22T01:41:35.087Z,15.00
2023-05-22T01:42:07.761Z,13.50
2023-05-22T01:42:41.229Z,13.60
2023-05-22T01:43:14.497Z,14.77
2023-05-22T01:43:46.614Z,13.77
2023-05-22T01:44:18.510Z,14.80
2023-05-22T01:44:51.551Z,14.85
2023-05-22T01:45:23.718Z,14.23
2023-05-22T01:45:56.983Z,14.50
2023-05-22T01:46:30.737Z,15.18
2023-05-22T01:47:05.322Z,15.10
2023-05-22T01:47:37.214Z,13.85
2023-05-22T01:48:10.182Z,14.05
2023-05-22T01:48:42.082Z,15.23
2023-05-22T01:49:13.972Z,14.73
2023-05-22T01:49:48.187Z,14.57
2023-05-22T01:50:20.999Z,14.70
2023-05-22T01:50:53.920Z,16.05
2023-05-22T01:51:38.051Z,15.05
2023-05-22T01:52:20.989Z,14.55
2023-05-22T01:52:59.644Z,15.43
2023-05-22T01:53:39.827Z,15.38
2023-05-22T01:54:18.122Z,14.30
2023-05-22T01:54:58.210Z,14.38
2023-05-22T01:55:36.047Z,14.88
2023-05-22T01:56:12.815Z,15.30
2023-05-22T01:56:50.068Z,13.80
2023-05-22T01:57:29.168Z,15.18
2023-05-22T01:58:12.497Z,16.30
2023-05-22T01:58:49.533Z,15.02
2023-05-22T01:59:30.755Z,15.43
2023-05-22T02:00:09.565Z,14.50
2023-05-22T02:00:45.847Z,15.32
2023-05-22T02:01:23.369Z,15.50
2023-05-22T02:01:55.683Z,14.68
2023-05-22T02:02:28.412Z,13.48
2023-05-22T02:03:09.694Z,14.70
2023-05-22T02:03:42.476Z,14.70
2023-05-22T02:04:16.207Z,14.20
2023-05-22T02:05:01.184Z,13.60
2023-05-22T02:05:38.635Z,13.63
2023-05-22T02:06:13.623Z,13.45
2023-05-22T02:06:47.495Z,14.98
2023-05-22T02:07:22.132Z,14.60
2023-05-22T02:07:57.544Z,13.73
2023-05-22T02:08:31.992Z,14.10
2023-05-22T02:09:04.189Z,13.45
2023-05-22T02:09:37.298Z,13.70
2023-05-22T02:10:12.206Z,13.57
2023-05-22T02:10:45.010Z,13.52
2023-05-22T02:11:17.345Z,15.75
2023-05-22T02:11:50.726Z,13.80
2023-05-22T02:12:23.237Z,14.98
2023-05-22T02:12:55.568Z,14.60
2023-05-22T02:13:29.178Z,15.30
2023-05-22T02:14:01.800Z,14.52
2023-05-22T02:14:34.668Z,15.15
2023-05-22T02:15:09.652Z,14.73
2023-05-22T02:15:44.548Z,13.38
2023-05-22T02:16:21.646Z,14.40
2023-05-22T02:16:53.640Z,13.85
2023-05-22T02:17:26.017Z,14.25
2023-05-22T02:18:01.668Z,15.02
2023-05-22T02:18:33.632Z,13.88
2023-05-22T02:19:06.004Z,14.80
2023-05-22T02:19:38.908Z,15.55
2023-05-22T02:20:14.322Z,12.95
2023-05-22T02:20:46.366Z,14.25
2023-05-22T02:21:19.248Z,15.23
2023-05-22T02:21:51.251Z,14.82
2023-05-22T02:22:23.173Z,14.80
2023-05-22T02:22:55.974Z,14.13
2023-05-22T02:23:29.437Z,13.60
2023-05-22T02:24:01.786Z,14.40
2023-05-22T02:24:36.846Z,14.32
2023-05-22T02:25:14.076Z,13.63
2023-05-22T02:25:45.900Z,14.05
2023-05-22T02:26:18.700Z,15.48
2023-05-22T02:26:50.675Z,14.85
2023-05-22T02:27:23.485Z,14.20
2023-05-22T02:27:55.351Z,14.40
2023-05-22T02:28:27.386Z,14.35
2023-05-22T02:29:00.335Z,14.23
2023-05-22T02:29:32.147Z,15.05
2023-05-22T02:30:04.623Z,14.50
2023-05-22T02:30:37.473Z,14.20
2023-05-22T02:31:09.447Z,14.07
2023-05-22T02:31:42.694Z,14.75
2023-05-22T02:32:15.502Z,14.45
2023-05-22T02:32:47.350Z,14.75
2023-05-22T02:33:19.310Z,12.90
2023-05-22T02:33:52.196Z,14.10
2023-05-22T02:34:24.040Z,13.77
2023-05-22T02:34:55.862Z,14.55
2023-05-22T02:35:28.653Z,14.88
2023-05-22T02:36:00.537Z,13.80
2023-05-22T02:36:32.458Z,12.93
2023-05-22T02:37:05.978Z,14.93
2023-05-22T02:37:38.558Z,12.73
2023-05-22T02:38:10.419Z,13.90
2023-05-22T02:38:43.206Z,14.30
2023-05-22T02:39:15.001Z,14.43
2023-05-22T02:39:46.817Z,13.88
2023-05-22T02:40:19.905Z,14.00
2023-05-22T02:40:51.770Z,13.98
2023-05-22T02:41:23.621Z,13.85
2023-05-22T02:41:56.532Z,13.68
2023-05-22T02:42:28.342Z,13.77
2023-05-22T02:43:00.361Z,15.07
2023-05-22T02:43:33.176Z,13.45
2023-05-22T02:44:05.212Z,13.85
2023-05-22T02:44:37.070Z,13.82
2023-05-22T02:45:11.020Z,13.00
2023-05-22T02:45:42.894Z,13.25
2023-05-22T02:46:14.838Z,13.60
2023-05-22T02:46:49.140Z,12.68
2023-05-22T02:47:21.150Z,12.05
2023-05-22T02:47:53.012Z,11.80
2023-05-22T02:48:25.894Z,13.43
2023-05-22T02:48:57.731Z,14.27
2023-05-22T02:49:29.598Z,14.27
2023-05-22T02:50:01.546Z,13.18
2023-05-22T02:50:34.333Z,11.93
2023-05-22T02:51:06.401Z,12.15
2023-05-22T02:51:38.241Z,11.88
2023-05-22T02:52:11.110Z,11.02
2023-05-22T02:52:45.104Z,12.07
2023-05-22T02:53:18.010Z,11.80
2023-05-22T02:53:49.905Z,12.35
2023-05-22T02:54:21.788Z,12.20
2023-05-22T02:54:54.589Z,12.70
2023-05-22T02:55:26.429Z,12.77
2023-05-22T02:55:58.892Z,12.88
2023-05-22T02:56:31.795Z,12.43
2023-05-22T02:57:04.052Z,13.25
2023-05-22T02:57:35.890Z,11.52
2023-05-22T02:58:11.130Z,13.23
2023-05-22T02:58:42.974Z,13.75
2023-05-22T02:59:14.753Z,13.18
2023-05-22T02:59:47.591Z,13.32
2023-05-22T03:00:20.590Z,13.73
2023-05-22T03:00:52.939Z,13.40
2023-05-22T03:01:27.063Z,14.32
2023-05-22T03:02:00.542Z,13.40
2023-05-22T03:02:32.609Z,13.07
2023-05-22T03:03:05.587Z,13.65
2023-05-22T03:03:37.686Z,13.63
2023-05-22T03:04:12.689Z,13.02
2023-05-22T03:04:46.388Z,12.57
2023-05-22T03:05:18.421Z,12.45
2023-05-22T03:05:53.634Z,12.55
2023-05-22T03:06:26.450Z,12.23
2023-05-22T03:06:59.030Z,12.45
2023-05-22T03:07:31.401Z,12.85
2023-05-22T03:08:04.313Z,13.20
2023-05-22T03:08:41.412Z,13.02
2023-05-22T03:09:13.297Z,12.50
2023-05-22T03:09:46.132Z,12.18
2023-05-22T03:10:18.025Z,12.77
2023-05-22T03:10:50.451Z,13.32
2023-05-22T03:11:23.246Z,12.10
2023-05-22T03:11:55.277Z,13.63
2023-05-22T03:12:27.114Z,13.38
2023-05-22T03:12:59.897Z,13.98
2023-05-22T03:13:31.709Z,13.05
2023-05-22T03:14:03.770Z,12.70
2023-05-22T03:14:36.581Z,11.98
2023-05-22T03:15:10.622Z,13.40
2023-05-22T03:15:42.443Z,14.55
2023-05-22T03:16:14.295Z,13.23
2023-05-22T03:16:47.290Z,12.85
2023-05-22T03:17:20.581Z,13.43
2023-05-22T03:17:52.455Z,13.60
2023-05-22T03:18:27.569Z,13.50
2023-05-22T03:19:08.607Z,13.40
2023-05-22T03:19:40.561Z,13.15
2023-05-22T03:20:16.658Z,13.23
2023-05-22T03:20:48.672Z,12.73
2023-05-22T03:21:20.510Z,13.88
2023-05-22T03:21:53.321Z,13.43
2023-05-22T03:22:25.174Z,13.25
2023-05-22T03:22:56.987Z,12.85
2023-05-22T03:23:29.821Z,12.25
2023-05-22T03:24:01.679Z,11.55
2023-05-22T03:24:33.500Z,13.00
2023-05-22T03:25:09.318Z,13.73
2023-05-22T03:25:41.160Z,12.98
2023-05-22T03:26:13.058Z,12.73
2023-05-22T03:26:46.012Z,11.60
2023-05-22T03:27:17.970Z,13.32
2023-05-22T03:27:49.812Z,12.65
2023-05-22T03:28:22.628Z,12.32
2023-05-22T03:28:54.531Z,14.30
2023-05-22T03:29:26.388Z,11.25
2023-05-22T03:29:59.178Z,12.35
2023-05-22T03:30:31.086Z,12.38
2023-05-22T03:31:03.068Z,12.60
2023-05-22T03:31:35.865Z,13.95
2023-05-22T03:32:08.159Z,12.68
2023-05-22T03:32:41.586Z,12.65
2023-05-22T03:33:14.533Z,12.25
2023-05-22T03:33:46.377Z,13.90
2023-05-22T03:34:18.212Z,12.68
2023-05-22T03:34:51.048Z,12.98
2023-05-22T03:35:24.688Z,12.35
2023-05-22T03:35:56.720Z,13.35
2023-05-22T03:36:32.305Z,13.00
2023-05-22T03:37:04.554Z,12.68
2023-05-22T03:37:36.421Z,12.43
2023-05-22T03:38:09.227Z,13.45
2023-05-22T03:38:41.325Z,13.18
2023-05-22T03:39:13.175Z,13.00
2023-05-22T03:39:46.218Z,13.05
2023-05-22T03:40:18.037Z,11.52
2023-05-22T03:40:49.858Z,12.30
2023-05-22T03:41:22.660Z,13.43
2023-05-22T03:41:54.507Z,13.00
2023-05-22T03:42:26.331Z,12.77
2023-05-22T03:42:59.107Z,13.57
2023-05-22T03:43:31.219Z,12.90
2023-05-22T03:44:03.302Z,13.40
2023-05-22T03:44:36.177Z,13.48
2023-05-22T03:45:08.859Z,13.13
2023-05-22T03:45:40.754Z,11.73
2023-05-22T03:46:13.873Z,13.05
2023-05-22T03:46:46.408Z,13.65
2023-05-22T03:47:18.332Z,14.10
2023-05-22T03:47:52.963Z,13.63
2023-05-22T03:48:25.021Z,13.43
2023-05-22T03:48:56.851Z,13.65
2023-05-22T03:49:29.647Z,13.23
2023-05-22T03:50:01.536Z,12.43
2023-05-22T03:50:33.428Z,13.00
2023-05-22T03:51:05.743Z,12.15
2023-05-22T03:51:38.539Z,13.07
2023-05-22T03:52:10.747Z,13.43
2023-05-22T03:52:42.577Z,13.02
2023-05-22T03:53:15.434Z,13.40
2023-05-22T03:53:47.498Z,12.00
2023-05-22T03:54:19.417Z,12.57
2023-05-22T03:54:53.410Z,12.95
2023-05-22T03:55:26.514Z,12.95
2023-05-22T03:55:59.240Z,12.63
2023-05-22T03:56:32.060Z,12.82
2023-05-22T03:57:04.439Z,12.95
2023-05-22T03:57:36.249Z,13.98
2023-05-22T03:58:09.081Z,12.85
2023-05-22T03:58:40.930Z,12.80
2023-05-22T03:59:12.750Z,12.75
2023-05-22T03:59:46.048Z,13.23
2023-05-22T04:00:19.614Z,12.27
2023-05-22T04:00:52.382Z,13.25
2023-05-22T04:01:25.215Z,12.38
2023-05-22T04:01:57.952Z,12.63
2023-05-22T04:02:30.144Z,11.70
2023-05-22T04:03:04.496Z,12.18
2023-05-22T04:03:36.529Z,12.63
2023-05-22T04:04:09.468Z,13.10
2023-05-22T04:04:42.292Z,14.15
2023-05-22T04:05:14.255Z,12.50
2023-05-22T04:05:46.341Z,13.15
2023-05-22T04:06:21.579Z,12.65
2023-05-22T04:06:53.866Z,12.90
2023-05-22T04:07:25.683Z,12.32
2023-05-22T04:07:58.600Z,13.20
2023-05-22T04:08:30.745Z,13.70
2023-05-22T04:09:02.569Z,13.68
2023-05-22T04:09:36.736Z,13.07
2023-05-22T04:10:09.217Z,11.82
2023-05-22T04:10:42.352Z,13.52
2023-05-22T04:11:15.712Z,13.07
2023-05-22T04:11:48.638Z,12.95
2023-05-22T04:12:20.478Z,12.25
2023-05-22T04:12:53.305Z,11.48
2023-05-22T04:13:25.679Z,13.07
2023-05-22T04:14:02.776Z,12.35
2023-05-22T04:14:35.644Z,12.85
2023-05-22T04:15:09.043Z,12.95
2023-05-22T04:15:41.511Z,12.00
2023-05-22T04:16:17.408Z,12.13
2023-05-22T04:16:50.508Z,10.82
2023-05-22T04:17:22.532Z,11.35
2023-05-22T04:17:55.087Z,11.68
2023-05-22T04:18:29.342Z,11.05
2023-05-22T04:19:03.105Z,10.35
2023-05-22T04:19:35.116Z,10.77
2023-05-22T04:20:09.404Z,11.00
2023-05-22T04:20:41.533Z,12.00
2023-05-22T04:21:13.782Z,11.68
2023-05-22T04:21:47.485Z,11.75
2023-05-22T04:22:19.338Z,11.43
2023-05-22T04:22:51.486Z,11.52
2023-05-22T04:23:24.324Z,11.25
2023-05-22T04:23:56.174Z,10.55
2023-05-22T04:24:28.056Z,11.43
2023-05-22T04:25:00.927Z,10.80
2023-05-22T04:25:34.251Z,11.60
2023-05-22T04:26:08.614Z,10.65
2023-05-22T04:26:42.728Z,10.18
2023-05-22T04:27:15.173Z,11.27
2023-05-22T04:27:48.909Z,11.27
2023-05-22T04:28:22.263Z,10.27
2023-05-22T04:28:54.472Z,10.85
2023-05-22T04:29:28.441Z,11.40
2023-05-22T04:30:00.601Z,10.82
2023-05-22T04:30:33.743Z,21.08
2023-05-22T04:31:07.357Z,17.80
2023-05-22T04:31:39.364Z,14.80
2023-05-22T04:32:11.475Z,14.75
2023-05-22T04:32:45.067Z,14.15
2023-05-22T04:33:18.008Z,14.82
2023-05-22T04:33:51.224Z,14.20
2023-05-22T04:34:24.492Z,16.92
2023-05-22T04:34:58.215Z,20.58
2023-05-22T04:35:30.107Z,20.90
2023-05-22T04:36:03.276Z,18.48
2023-05-22T04:36:35.846Z,14.38
2023-05-22T04:37:07.754Z,14.82
2023-05-22T04:37:42.188Z,13.75
2023-05-22T04:38:14.182Z,12.85
2023-05-22T04:38:47.501Z,12.07
2023-05-22T04:39:20.356Z,11.20
2023-05-22T04:39:53.437Z,11.60
2023-05-22T04:40:26.186Z,11.15
2023-05-22T04:41:00.306Z,11.25
2023-05-22T04:41:32.440Z,12.07
2023-05-22T04:42:05.822Z,12.60
2023-05-22T04:42:38.290Z,10.05
2023-05-22T04:43:11.525Z,12.10
2023-05-22T04:43:43.841Z,12.13
2023-05-22T04:44:15.673Z,12.65
2023-05-22T04:44:48.466Z,11.38
2023-05-22T04:45:21.150Z,12.50
2023-05-22T04:45:54.036Z,18.30
2023-05-22T04:46:28.540Z,14.50
2023-05-22T04:47:01.013Z,16.83
2023-05-22T04:47:33.046Z,18.58
2023-05-22T04:48:07.989Z,19.83
2023-05-22T04:48:40.213Z,23.40
2023-05-22T04:49:13.454Z,19.45
2023-05-22T04:49:46.570Z,14.10
2023-05-22T04:50:18.755Z,16.75
2023-05-22T04:50:50.728Z,14.30
2023-05-22T04:51:23.819Z,12.45
2023-05-22T04:51:57.257Z,13.98
2023-05-22T04:52:29.150Z,12.60
2023-05-22T04:53:04.084Z,11.13
2023-05-22T04:53:36.894Z,11.20
2023-05-22T04:54:08.806Z,12.23
2023-05-22T04:54:43.264Z,11.30
2023-05-22T04:55:15.369Z,11.50
2023-05-22T04:55:47.266Z,11.07
2023-05-22T04:56:31.803Z,11.27
2023-05-22T04:57:07.309Z,11.00
2023-05-22T04:57:40.176Z,11.80
2023-05-22T04:58:12.184Z,12.13
2023-05-22T04:58:44.988Z,11.40
2023-05-22T04:59:16.793Z,11.30
2023-05-22T04:59:48.979Z,11.90
2023-05-22T05:00:26.320Z,10.75
2023-05-22T05:00:59.050Z,11.40
2023-05-22T05:01:33.081Z,10.95
2023-05-22T05:02:06.727Z,11.35
2023-05-22T05:02:38.632Z,11.60
2023-05-22T05:03:11.756Z,11.18
2023-05-22T05:03:45.356Z,10.93
2023-05-22T05:04:18.759Z,11.90
2023-05-22T05:04:50.579Z,22.85
2023-05-22T05:05:23.523Z,31.15
2023-05-22T05:05:56.601Z,24.58
2023-05-22T05:06:28.468Z,22.58
2023-05-22T05:07:02.425Z,22.20
2023-05-22T05:07:37.664Z,23.52
2023-05-22T05:08:10.534Z,29.90
2023-05-22T05:08:44.323Z,21.27
2023-05-22T05:09:17.151Z,15.43
2023-05-22T05:09:49.199Z,13.05
2023-05-22T05:10:21.198Z,12.80
2023-05-22T05:10:54.016Z,11.90
2023-05-22T05:11:26.025Z,12.35
2023-05-22T05:11:58.217Z,10.57
2023-05-22T05:12:30.980Z,10.35
2023-05-22T05:13:02.967Z,10.30
2023-05-22T05:13:34.805Z,10.70
2023-05-22T05:14:07.591Z,11.93
2023-05-22T05:14:39.442Z,11.38
2023-05-22T05:15:11.409Z,11.20
2023-05-22T05:15:44.248Z,10.07
2023-05-22T05:16:16.261Z,11.52
2023-05-22T05:16:48.206Z,11.90
2023-05-22T05:17:22.282Z,9.70
2023-05-22T05:17:54.191Z,10.52
2023-05-22T05:18:26.533Z,10.32
2023-05-22T05:18:59.401Z,11.45
2023-05-22T05:19:34.166Z,10.05
2023-05-22T05:20:09.170Z,10.73
2023-05-22T05:20:41.975Z,10.07
2023-05-22T05:21:13.800Z,9.57
2023-05-22T05:21:45.831Z,11.13
2023-05-22T05:22:18.725Z,10.80
2023-05-22T05:22:51.034Z,10.20
2023-05-22T05:23:22.909Z,11.18
2023-05-22T05:23:55.762Z,10.88
2023-05-22T05:24:27.598Z,10.65
2023-05-22T05:25:00.405Z,9.88
2023-05-22T05:25:32.407Z,11.05
2023-05-22T05:26:05.421Z,9.93
2023-05-22T05:26:37.408Z,10.63
2023-05-22T05:27:09.249Z,9.30
2023-05-22T05:27:42.073Z,9.85
2023-05-22T05:28:13.903Z,10.63
2023-05-22T05:28:45.782Z,10.07
2023-05-22T05:29:18.676Z,10.75
2023-05-22T05:29:50.517Z,10.43
2023-05-22T05:30:22.450Z,11.48
2023-05-22T05:30:55.498Z,10.95
2023-05-22T05:31:27.352Z,10.20
2023-05-22T05:31:59.281Z,10.32
2023-05-22T05:32:32.243Z,10.48
2023-05-22T05:33:04.286Z,10.43
2023-05-22T05:33:37.138Z,10.63
2023-05-22T05:34:09.147Z,10.65
2023-05-22T05:34:42.380Z,12.90
2023-05-22T05:35:15.491Z,26.02
2023-05-22T05:35:50.194Z,16.58
2023-05-22T05:36:24.624Z,11.48
2023-05-22T05:36:57.238Z,12.75
2023-05-22T05:37:29.133Z,11.50
2023-05-22T05:38:01.987Z,11.35
2023-05-22T05:38:33.806Z,10.95
2023-05-22T05:39:05.704Z,10.68
2023-05-22T05:39:38.505Z,11.40
2023-05-22T05:40:11.167Z,11.10
2023-05-22T05:40:43.792Z,11.27
2023-05-22T05:41:16.720Z,11.38
2023-05-22T05:41:48.626Z,11.95
2023-05-22T05:42:20.455Z,10.27
2023-05-22T05:42:53.241Z,11.65
2023-05-22T05:43:25.500Z,11.55
2023-05-22T05:43:59.881Z,11.32
2023-05-22T05:44:32.758Z,9.85
2023-05-22T05:45:05.430Z,11.40
2023-05-22T05:45:37.325Z,11.77
2023-05-22T05:46:10.206Z,10.15
2023-05-22T05:46:42.176Z,11.05
2023-05-22T05:47:14.254Z,11.30
2023-05-22T05:47:47.123Z,10.98
2023-05-22T05:48:18.961Z,11.23
2023-05-22T05:48:50.851Z,11.27
2023-05-22T05:49:22.731Z,11.05
2023-05-22T05:49:58.235Z,11.00
2023-05-22T05:50:30.117Z,11.93
2023-05-22T05:51:01.983Z,11.77
2023-05-22T05:51:34.785Z,10.70
2023-05-22T05:52:07.887Z,11.63
2023-05-22T05:52:39.764Z,12.88
2023-05-22T05:53:12.568Z,12.18
2023-05-22T05:53:44.431Z,11.88
2023-05-22T05:54:17.199Z,11.25
2023-05-22T05:54:48.989Z,11.93
2023-05-22T05:55:21.808Z,11.32
2023-05-22T05:55:53.688Z,11.45
2023-05-22T05:56:25.640Z,10.98
2023-05-22T05:56:58.419Z,10.68
2023-05-22T05:57:31.943Z,12.05
2023-05-22T05:58:04.768Z,11.05
2023-05-22T05:58:36.626Z,11.60
2023-05-22T05:59:09.731Z,11.00
2023-05-22T05:59:41.593Z,11.20
2023-05-22T06:00:14.224Z,11.30
2023-05-22T06:00:47.013Z,9.80
2023-05-22T06:01:19.336Z,11.75
2023-05-22T06:01:51.393Z,10.35
2023-05-22T06:02:24.432Z,11.35
2023-05-22T06:02:56.422Z,9.77
2023-05-22T06:03:28.431Z,11.20
2023-05-22T06:04:03.170Z,11.18
2023-05-22T06:04:35.753Z,12.82
2023-05-22T06:05:10.149Z,10.60
2023-05-22T06:05:43.028Z,12.32
2023-05-22T06:06:15.289Z,10.90
2023-05-22T06:06:47.738Z,11.65
2023-05-22T06:07:20.872Z,11.73
2023-05-22T06:07:52.938Z,11.35
2023-05-22T06:08:24.787Z,11.30
2023-05-22T06:08:57.650Z,11.35
2023-05-22T06:09:29.493Z,12.50
2023-05-22T06:10:02.400Z,11.13
2023-05-22T06:10:34.619Z,10.10
2023-05-22T06:11:06.460Z,11.40
2023-05-22T06:11:39.272Z,11.05
2023-05-22T06:12:12.804Z,11.60
2023-05-22T06:12:45.922Z,11.52
2023-05-22T06:13:17.727Z,11.93
2023-05-22T06:13:49.593Z,10.88
2023-05-22T06:14:22.392Z,11.63
2023-05-22T06:14:54.252Z,11.27
2023-05-22T06:15:27.114Z,10.43
2023-05-22T06:16:01.315Z,10.90
2023-05-22T06:16:35.999Z,9.43
2023-05-22T06:17:09.113Z,10.10
2023-05-22T06:17:42.021Z,10.43
2023-05-22T06:18:13.901Z,10.32
2023-05-22T06:18:46.540Z,10.20
2023-05-22T06:19:19.445Z,10.48
2023-05-22T06:19:51.308Z,10.82
2023-05-22T06:20:25.085Z,11.07
2023-05-22T06:20:58.963Z,10.38
2023-05-22T06:21:31.130Z,10.45
2023-05-22T06:22:04.042Z,11.45
2023-05-22T06:22:36.019Z,11.30
2023-05-22T06:23:07.931Z,10.15
2023-05-22T06:23:40.897Z,9.77
2023-05-22T06:24:12.756Z,10.07
2023-05-22T06:24:45.600Z,9.88
2023-05-22T06:25:17.553Z,9.80
2023-05-22T06:25:50.355Z,10.27
2023-05-22T06:26:22.267Z,9.30
2023-05-22T06:26:55.460Z,9.70
2023-05-22T06:27:27.747Z,10.10
2023-05-22T06:28:00.758Z,10.23
2023-05-22T06:28:32.580Z,11.07
2023-05-22T06:29:06.129Z,9.75
2023-05-22T06:29:38.045Z,9.40
2023-05-22T06:30:10.195Z,10.90
2023-05-22T06:30:43.000Z,10.02
2023-05-22T06:31:15.333Z,9.95
2023-05-22T06:31:47.507Z,9.95
2023-05-22T06:32:20.742Z,10.90
2023-05-22T06:32:52.823Z,9.90
2023-05-22T06:33:24.923Z,10.35
2023-05-22T06:33:57.826Z,10.98
2023-05-22T06:34:29.781Z,10.32
2023-05-22T06:35:02.013Z,9.70
2023-05-22T06:35:36.378Z,8.48
2023-05-22T06:36:08.828Z,9.60
2023-05-22T06:36:40.819Z,9.75
2023-05-22T06:37:13.769Z,10.27
2023-05-22T06:37:45.709Z,9.65
2023-05-22T06:38:17.586Z,9.82
2023-05-22T06:38:51.795Z,10.45
2023-05-22T06:39:23.615Z,9.90
2023-05-22T06:39:55.467Z,10.02
2023-05-22T06:40:28.356Z,9.25
2023-05-22T06:41:00.442Z,10.20
2023-05-22T06:41:33.556Z,10.65
2023-05-22T06:42:05.965Z,10.32
2023-05-22T06:42:38.743Z,10.35
2023-05-22T06:43:10.604Z,10.15
2023-05-22T06:43:42.495Z,9.48
2023-05-22T06:44:15.257Z,9.48
2023-05-22T06:44:47.069Z,10.07
2023-05-22T06:45:19.821Z,9.55
2023-05-22T06:45:52.744Z,9.48
2023-05-22T06:46:26.143Z,10.45
2023-05-22T06:46:58.238Z,9.65
2023-05-22T06:47:32.136Z,9.98
2023-05-22T06:48:04.461Z,10.02
2023-05-22T06:48:36.524Z,10.90
2023-05-22T06:49:09.409Z,10.23
2023-05-22T06:49:41.332Z,10.85
2023-05-22T06:50:13.208Z,10.10
2023-05-22T06:50:47.352Z,10.10
2023-05-22T06:51:19.216Z,11.32
2023-05-22T06:51:51.561Z,10.18
2023-05-22T06:52:24.388Z,9.93
2023-05-22T06:52:56.545Z,9.25
2023-05-22T06:53:28.429Z,9.80
2023-05-22T06:54:01.291Z,9.25
2023-05-22T06:54:33.238Z,9.32
2023-05-22T06:55:05.789Z,9.20
2023-05-22T06:55:38.707Z,9.93
2023-05-22T06:56:10.527Z,10.63
2023-05-22T06:56:42.447Z,9.68
2023-05-22T06:57:15.230Z,9.93
2023-05-22T06:57:47.096Z,10.45
2023-05-22T06:58:18.939Z,10.45
2023-05-22T06:58:51.732Z,10.82
2023-05-22T06:59:23.562Z,9.65
2023-05-22T06:59:55.672Z,10.98
2023-05-22T07:00:28.626Z,9.93
2023-05-22T07:01:00.705Z,9.18
2023-05-22T07:01:34.092Z,9.88
2023-05-22T07:02:06.296Z,9.98
2023-05-22T07:02:38.278Z,9.88
2023-05-22T07:03:11.968Z,9.70
2023-05-22T07:03:43.906Z,9.00
2023-05-22T07:04:15.855Z,9.65
2023-05-22T07:04:48.636Z,9.27
2023-05-22T07:05:20.517Z,11.10
2023-05-22T07:05:57.540Z,9.73
2023-05-22T07:06:32.280Z,10.00
2023-05-22T07:07:04.463Z,9.80
2023-05-22T07:07:37.266Z,9.60
2023-05-22T07:08:09.096Z,8.57
2023-05-22T07:08:41.885Z,10.35
2023-05-22T07:09:15.634Z,9.50
2023-05-22T07:09:47.561Z,8.88
2023-05-22T07:10:20.588Z,10.10
2023-05-22T07:10:52.484Z,10.13
2023-05-22T07:11:24.332Z,10.18
2023-05-22T07:11:57.123Z,11.90